Airfield :
LOGIN :

Register | Disclaimer

   EN    FR    IT 

 










Legend :    VFR   Marginal VFR   IFR   Intensive IFR   Very Intensive IFR
Visi :
Ceiling :
>= 8 km
>= 3000ft
5 to 8 km
1000 to 3000 ft
1500m to 5 km
500 to 1000 ft
800 to 1500m
200 to 500 ft
< 800m
< 200 ft
Symbols :   Thunderstorms  Fog  Heavy snow  Heavy precipitations  Wind > 20 kt
SIGMETs :     Misc.  Thunderstorms  Icing  Turbulence  Mountain Waves  Volcanic Ashes






- Airport Elevation : 446 ft
- IATA code : VNE


LFRV - Vannes-Meucon

CURRENT METAR :
  • 200200Z AUTO 22007KT 180V260 9999 OVC037 09/07 Q1020

EXPIRED METARs :
  • 200130Z AUTO 22008KT 190V260 9999 FEW015 SCT029 OVC038 09/07 Q1020
  • 200100Z AUTO 22008KT 180V240 9999 OVC039 09/07 Q1020
  • 200030Z AUTO 22008KT 180V250 9999 FEW014 BKN021 BKN027 08/07 Q1021
  • 200000Z AUTO 23009KT 200V260 9999 SCT025 BKN030 OVC040 10/06 Q1021
  • 192330Z AUTO 22008KT 180V260 9999 FEW029 OVC041 10/06 Q1021

TAF N/A



MET'MAP, your aeronautical weather chart ! - Copyright ORBIFLY December 2007 - Disclaimer

ORBIFLY MET'MAP TEAM :

Programming & Development : Alexandra Zaïnal
Concept & original design : Baudouin d'Aumeries
Assistance for programming : Marc-Olivier Méhu
Technical & hardware support : Manuel Goepfert

Contact : metmap@orbifly.com




SOURCES & CREDITS :

   NOAA